Time;durP1;ratioP1;P1;durP2;ratioP2;P2;SDS_P1;SDS_P2;PMS_P1;PMS_P2;Temp;Humidity;BMP_temperature;BMP_pressure;BME280_temperature;BME280_humidity;BME280_pressure;Samples;Min_cycle;Max_cycle;Signal;HPM_P1;HPM_P2
2022/08/06 00:01:33;;;;;;;1.42;1.33;;;;;;;;;;5032104;28;20072;-84
2022/08/06 00:03:59;;;;;;;1.58;1.45;;;;;;;;;;5031040;28;20045;-85
2022/08/06 00:06:25;;;;;;;1.73;1.30;;;;;;;;;;5012055;28;20119;-85
2022/08/06 00:08:51;;;;;;;5.82;1.65;;;;;;;;;;5003426;28;20453;-85
2022/08/06 00:11:17;;;;;;;2.00;1.70;;;;;;;;;;5027974;28;20505;-85
2022/08/06 00:13:43;;;;;;;1.70;1.30;;;;;;;;;;5013743;28;20046;-84
2022/08/06 00:16:09;;;;;;;1.38;1.25;;;;;;;;;;5019241;28;20350;-84
2022/08/06 00:18:35;;;;;;;1.55;1.45;;;;;;;;;;5031955;28;20057;-85
2022/08/06 00:21:01;;;;;;;1.73;1.42;;;;;;;;;;5012502;28;20069;-85
2022/08/06 00:23:27;;;;;;;2.05;1.38;;;;;;;;;;5031426;28;20081;-85
2022/08/06 00:25:54;;;;;;;2.60;1.50;;;;;;;;;;5031512;28;20072;-84
2022/08/06 00:28:23;;;;;;;1.65;1.40;;;;;;;;;;5027787;28;20233;-85
2022/08/06 00:30:49;;;;;;;1.90;1.40;;;;;;;;;;5031838;28;20037;-85
2022/08/06 00:33:15;;;;;;;1.92;1.30;;;;;;;;;;5030683;28;20379;-85
2022/08/06 00:35:42;;;;;;;3.47;2.20;;;;;;;;;;5031833;28;20052;-85
2022/08/06 00:38:08;;;;;;;2.08;1.60;;;;;;;;;;5013432;28;20057;-85
2022/08/06 00:40:34;;;;;;;3.15;1.90;;;;;;;;;;5018754;28;20041;-85
2022/08/06 00:43:02;;;;;;;2.35;1.60;;;;;;;;;;5013961;28;20094;-85
2022/08/06 00:45:28;;;;;;;1.75;1.60;;;;;;;;;;5013572;28;20045;-85
2022/08/06 00:47:54;;;;;;;2.17;1.63;;;;;;;;;;5013850;28;20553;-85
2022/08/06 00:50:20;;;;;;;3.35;1.58;;;;;;;;;;5031138;28;20180;-85
2022/08/06 00:52:46;;;;;;;2.70;1.63;;;;;;;;;;5017034;28;20104;-85
2022/08/06 00:55:12;;;;;;;1.98;1.40;;;;;;;;;;5031173;28;20045;-84
2022/08/06 00:57:39;;;;;;;2.05;1.65;;;;;;;;;;5031940;28;20049;-85
2022/08/06 01:00:06;;;;;;;1.40;1.30;;;;;;;;;;5015427;28;20052;-85
2022/08/06 01:02:32;;;;;;;2.47;1.52;;;;;;;;;;5004881;28;20094;-85
2022/08/06 01:04:58;;;;;;;2.35;1.60;;;;;;;;;;5029668;28;20129;-85
2022/08/06 01:07:24;;;;;;;3.63;1.60;;;;;;;;;;5028845;28;20048;-85
2022/08/06 01:09:50;;;;;;;2.50;1.40;;;;;;;;;;5003254;28;20120;-85
2022/08/06 01:12:16;;;;;;;3.60;1.60;;;;;;;;;;5031187;28;20582;-84
2022/08/06 01:14:43;;;;;;;1.70;1.60;;;;;;;;;;5030738;28;20041;-85
2022/08/06 01:17:15;;;;;;;2.60;1.63;;;;;;;;;;5023816;28;20042;-85
2022/08/06 01:19:50;;;;;;;3.08;1.98;;;;;;;;;;5028987;28;20063;-84
2022/08/06 01:22:32;;;;;;;2.88;1.70;;;;;;;;;;5017166;28;20049;-85
2022/08/06 01:25:12;;;;;;;1.73;1.42;;;;;;;;;;5011241;28;20046;-85
2022/08/06 01:27:44;;;;;;;2.45;1.58;;;;;;;;;;5005867;28;20490;-84
2022/08/06 01:30:12;;;;;;;3.97;1.85;;;;;;;;;;5030049;28;20111;-84
2022/08/06 01:32:42;;;;;;;2.88;1.80;;;;;;;;;;5013357;28;20458;-85
2022/08/06 01:35:10;;;;;;;1.85;1.60;;;;;;;;;;5028861;28;20050;-85
2022/08/06 01:37:39;;;;;;;2.70;1.65;;;;;;;;;;5012303;28;20087;-85
2022/08/06 01:40:07;;;;;;;2.17;1.60;;;;;;;;;;5012597;28;20050;-85
2022/08/06 01:42:33;;;;;;;3.58;1.75;;;;;;;;;;5029175;28;20045;-84
2022/08/06 01:45:01;;;;;;;2.78;1.60;;;;;;;;;;5012367;28;20482;-85
2022/08/06 01:47:28;;;;;;;3.03;1.70;;;;;;;;;;5010295;28;20541;-84
2022/08/06 01:49:56;;;;;;;11.52;2.17;;;;;;;;;;5030609;28;20058;-85
2022/08/06 01:52:24;;;;;;;2.50;1.80;;;;;;;;;;5028939;28;20475;-85
2022/08/06 01:54:50;;;;;;;1.80;1.70;;;;;;;;;;5011632;28;20045;-85
2022/08/06 01:57:18;;;;;;;3.63;2.10;;;;;;;;;;5020098;28;20351;-84
2022/08/06 01:59:48;;;;;;;3.63;2.05;;;;;;;;;;5030896;28;20048;-85
2022/08/06 02:02:17;;;;;;;3.72;1.95;;;;;;;;;;5011751;28;20060;-85
2022/08/06 02:04:45;;;;;;;3.55;2.17;;;;;;;;;;5012955;28;20103;-85
2022/08/06 02:07:12;;;;;;;3.42;1.98;;;;;;;;;;5020858;28;20045;-85
2022/08/06 02:09:40;;;;;;;2.75;2.10;;;;;;;;;;5024401;28;20474;-84
2022/08/06 02:12:14;;;;;;;2.75;2.30;;;;;;;;;;5003015;28;20045;-84
2022/08/06 02:14:52;;;;;;;6.05;2.05;;;;;;;;;;5012957;28;20087;-84
2022/08/06 02:17:20;;;;;;;2.25;1.90;;;;;;;;;;5008831;28;20054;-85
2022/08/06 02:19:49;;;;;;;2.20;1.95;;;;;;;;;;5029439;28;20049;-85
2022/08/06 02:22:15;;;;;;;3.85;2.35;;;;;;;;;;5020003;28;20098;-84
2022/08/06 02:24:42;;;;;;;2.88;1.92;;;;;;;;;;5010851;28;20563;-85
2022/08/06 02:27:10;;;;;;;2.78;1.95;;;;;;;;;;5029119;28;20045;-84
2022/08/06 02:29:37;;;;;;;3.75;1.83;;;;;;;;;;5011254;28;20045;-85
2022/08/06 02:32:03;;;;;;;2.20;2.00;;;;;;;;;;5011878;28;20050;-85
2022/08/06 02:34:29;;;;;;;3.45;1.90;;;;;;;;;;5011686;28;20080;-85
2022/08/06 02:37:22;;;;;;;2.28;2.08;;;;;;;;;;5028430;28;20038;-85
2022/08/06 02:39:50;;;;;;;2.55;2.10;;;;;;;;;;5026535;28;20144;-85
2022/08/06 02:42:19;;;;;;;4.32;2.17;;;;;;;;;;5028312;28;20404;-85
2022/08/06 02:44:52;;;;;;;3.42;2.05;;;;;;;;;;5024650;28;20037;-85
2022/08/06 02:47:22;;;;;;;3.60;2.10;;;;;;;;;;4997990;28;20057;-84
2022/08/06 02:49:51;;;;;;;2.58;1.90;;;;;;;;;;5026164;28;20175;-84
2022/08/06 02:52:18;;;;;;;2.13;1.90;;;;;;;;;;5010290;28;20046;-85
2022/08/06 02:54:52;;;;;;;2.17;1.98;;;;;;;;;;4992365;28;20054;-85
2022/08/06 02:57:22;;;;;;;3.33;2.28;;;;;;;;;;5014634;28;20068;-84
2022/08/06 02:59:50;;;;;;;3.65;2.10;;;;;;;;;;5029874;28;20056;-85
2022/08/06 03:02:17;;;;;;;2.35;2.10;;;;;;;;;;5006896;28;20147;-85
2022/08/06 03:04:46;;;;;;;3.28;2.00;;;;;;;;;;5028384;28;20057;-84
2022/08/06 03:07:14;;;;;;;2.45;2.25;;;;;;;;;;5010409;28;20512;-85
2022/08/06 03:09:41;;;;;;;4.07;2.20;;;;;;;;;;5029629;28;20494;-84
2022/08/06 03:12:11;;;;;;;2.38;2.17;;;;;;;;;;5025765;28;20072;-85
2022/08/06 03:14:38;;;;;;;3.38;2.15;;;;;;;;;;5009464;28;20037;-85
2022/08/06 03:17:06;;;;;;;3.28;2.20;;;;;;;;;;5017388;28;20056;-85
2022/08/06 03:19:33;;;;;;;4.07;2.35;;;;;;;;;;5016224;28;20049;-85
2022/08/06 03:21:59;;;;;;;3.50;2.13;;;;;;;;;;5016173;28;20147;-85
2022/08/06 03:24:26;;;;;;;2.42;2.00;;;;;;;;;;5012244;28;20060;-85
2022/08/06 03:26:54;;;;;;;3.08;2.10;;;;;;;;;;5017694;28;20073;-85
2022/08/06 03:29:20;;;;;;;3.97;2.30;;;;;;;;;;4991789;28;20088;-85
2022/08/06 03:31:46;;;;;;;2.20;2.00;;;;;;;;;;4992054;28;20233;-85
2022/08/06 03:34:12;;;;;;;2.42;1.98;;;;;;;;;;4991684;28;20042;-85
2022/08/06 03:36:38;;;;;;;3.85;2.15;;;;;;;;;;5018800;28;20042;-85
2022/08/06 03:39:08;;;;;;;3.35;2.17;;;;;;;;;;5029241;28;20046;-85
2022/08/06 03:41:38;;;;;;;2.95;1.95;;;;;;;;;;5010178;28;20096;-85
2022/08/06 03:44:04;;;;;;;2.55;1.85;;;;;;;;;;5028388;28;20041;-85
2022/08/06 03:46:34;;;;;;;2.88;1.90;;;;;;;;;;5028605;28;20050;-85
2022/08/06 03:49:03;;;;;;;2.28;1.98;;;;;;;;;;5026890;28;20045;-85
2022/08/06 03:51:30;;;;;;;6.70;2.28;;;;;;;;;;5022923;28;20049;-85
2022/08/06 03:53:57;;;;;;;3.08;1.83;;;;;;;;;;5029130;28;20103;-85
2022/08/06 03:56:24;;;;;;;2.90;1.80;;;;;;;;;;5027848;28;20042;-85
2022/08/06 03:58:51;;;;;;;2.95;2.00;;;;;;;;;;5013355;28;20077;-85
2022/08/06 04:01:20;;;;;;;3.22;2.00;;;;;;;;;;5014331;28;20493;-85
2022/08/06 04:03:46;;;;;;;2.17;1.90;;;;;;;;;;5027776;28;20066;-85
2022/08/06 04:06:18;;;;;;;4.57;2.25;;;;;;;;;;5012874;28;20490;-85
2022/08/06 04:08:44;;;;;;;4.47;2.13;;;;;;;;;;4999736;28;20486;-84
2022/08/06 04:11:11;;;;;;;2.50;2.08;;;;;;;;;;5031361;28;20046;-85
2022/08/06 04:13:38;;;;;;;2.63;1.95;;;;;;;;;;5010821;28;20125;-85
2022/08/06 04:16:05;;;;;;;2.95;2.10;;;;;;;;;;4995144;28;20499;-84
2022/08/06 04:18:33;;;;;;;3.60;1.90;;;;;;;;;;5023874;28;20049;-84
2022/08/06 04:21:04;;;;;;;2.33;1.92;;;;;;;;;;5021285;28;20053;-84
2022/08/06 04:23:30;;;;;;;2.80;2.20;;;;;;;;;;5031888;28;20125;-84
2022/08/06 04:25:59;;;;;;;4.22;2.65;;;;;;;;;;5030742;28;20049;-85
2022/08/06 04:28:27;;;;;;;2.88;2.10;;;;;;;;;;5031845;28;20088;-85
2022/08/06 04:30:54;;;;;;;4.70;2.25;;;;;;;;;;5031735;28;20049;-85
2022/08/06 04:33:21;;;;;;;3.17;2.17;;;;;;;;;;5031385;28;20044;-85
2022/08/06 04:35:48;;;;;;;3.25;2.00;;;;;;;;;;5031257;28;20045;-85
2022/08/06 04:38:15;;;;;;;3.00;2.03;;;;;;;;;;5031942;28;20540;-84
2022/08/06 04:40:42;;;;;;;3.03;2.30;;;;;;;;;;5025273;28;20422;-85
2022/08/06 04:43:09;;;;;;;4.20;2.40;;;;;;;;;;5011311;28;20614;-85
2022/08/06 04:45:37;;;;;;;4.10;2.13;;;;;;;;;;5012497;28;20064;-84
2022/08/06 04:48:04;;;;;;;3.50;2.60;;;;;;;;;;5019041;28;20117;-85
2022/08/06 04:50:31;;;;;;;3.58;2.50;;;;;;;;;;4997218;28;20391;-84
2022/08/06 04:53:07;;;;;;;3.05;2.20;;;;;;;;;;5011744;28;20041;-85
2022/08/06 04:55:33;;;;;;;;;;;;;;;;;;5012488;28;20041;-85
2022/08/06 04:57:59;;;;;;;3.28;2.28;;;;;;;;;;5029185;28;19940;-85
2022/08/06 05:00:25;;;;;;;4.88;2.47;;;;;;;;;;5031745;28;20096;-84
2022/08/06 05:02:51;;;;;;;4.15;2.10;;;;;;;;;;5010094;28;20399;-85
2022/08/06 05:05:20;;;;;;;3.50;2.00;;;;;;;;;;4994209;28;20446;-85
2022/08/06 05:07:47;;;;;;;3.17;2.20;;;;;;;;;;5007114;28;20184;-85
2022/08/06 05:10:13;;;;;;;4.18;2.40;;;;;;;;;;5017093;28;20045;-85
2022/08/06 05:12:47;;;;;;;3.50;2.38;;;;;;;;;;5016572;28;20048;-85
2022/08/06 05:15:31;;;;;;;4.63;2.22;;;;;;;;;;4994278;28;20417;-85
2022/08/06 05:18:00;;;;;;;2.53;2.00;;;;;;;;;;4993638;28;20054;-85
2022/08/06 05:20:28;;;;;;;4.30;2.00;;;;;;;;;;4994660;28;20305;-85
2022/08/06 05:22:57;;;;;;;3.40;2.00;;;;;;;;;;5028882;28;20073;-84
2022/08/06 05:25:23;;;;;;;3.95;2.30;;;;;;;;;;5023556;28;20049;-82
2022/08/06 05:27:49;;;;;;;2.70;2.10;;;;;;;;;;5026709;28;20046;-84
2022/08/06 05:30:16;;;;;;;2.70;2.05;;;;;;;;;;5030699;28;20052;-85
2022/08/06 05:32:45;;;;;;;2.72;2.13;;;;;;;;;;5029285;28;20049;-84
2022/08/06 05:35:12;;;;;;;5.50;2.00;;;;;;;;;;5023773;28;20041;-85
2022/08/06 05:37:38;;;;;;;5.43;2.40;;;;;;;;;;5007242;28;20110;-85
2022/08/06 05:40:04;;;;;;;3.63;2.17;;;;;;;;;;5024403;28;20505;-85
2022/08/06 05:42:30;;;;;;;3.22;1.83;;;;;;;;;;4993951;28;20049;-84
2022/08/06 05:44:56;;;;;;;3.45;2.10;;;;;;;;;;5018032;28;20551;-85
2022/08/06 05:47:24;;;;;;;2.60;1.90;;;;;;;;;;5030599;28;20049;-84
2022/08/06 05:49:56;;;;;;;4.15;2.17;;;;;;;;;;5013054;28;20057;-84
2022/08/06 05:52:32;;;;;;;5.20;2.33;;;;;;;;;;5013586;28;20136;-84
2022/08/06 05:55:02;;;;;;;5.22;2.55;;;;;;;;;;5020174;28;20060;-84
2022/08/06 05:57:44;;;;;;;3.47;2.30;;;;;;;;;;5010981;28;20124;-84
2022/08/06 06:00:13;;;;;;;6.03;2.40;;;;;;;;;;5010577;28;20050;-84
2022/08/06 06:02:41;;;;;;;3.78;2.17;;;;;;;;;;4993307;28;20053;-84
2022/08/06 06:05:08;;;;;;;7.95;2.40;;;;;;;;;;5023895;28;20038;-83
2022/08/06 06:07:34;;;;;;;6.00;2.38;;;;;;;;;;5026305;28;20491;-84
2022/08/06 06:10:01;;;;;;;4.07;2.30;;;;;;;;;;5020935;28;20045;-83
2022/08/06 06:12:27;;;;;;;4.75;2.50;;;;;;;;;;5028916;28;20045;-83
2022/08/06 06:14:53;;;;;;;3.85;2.20;;;;;;;;;;5016178;28;20089;-84
2022/08/06 06:17:19;;;;;;;4.53;2.30;;;;;;;;;;5029857;28;20099;-83
2022/08/06 06:19:45;;;;;;;4.45;2.40;;;;;;;;;;5030387;28;20049;-85
2022/08/06 06:22:19;;;;;;;3.00;2.05;;;;;;;;;;5009847;28;20474;-84
2022/08/06 06:24:56;;;;;;;4.13;2.10;;;;;;;;;;5029992;28;20045;-83
2022/08/06 06:27:28;;;;;;;4.35;2.00;;;;;;;;;;5023780;28;20082;-83
2022/08/06 06:30:07;;;;;;;3.10;1.80;;;;;;;;;;5028143;28;20068;-82
2022/08/06 06:32:49;;;;;;;3.10;1.80;;;;;;;;;;5029293;28;20052;-83
2022/08/06 06:35:21;;;;;;;4.22;2.00;;;;;;;;;;5025841;28;20048;-82
2022/08/06 06:37:47;;;;;;;3.00;1.80;;;;;;;;;;5012341;28;20041;-83
2022/08/06 06:40:16;;;;;;;5.38;2.20;;;;;;;;;;5011524;28;20053;-82
2022/08/06 06:43:05;;;;;;;3.72;1.80;;;;;;;;;;5030064;28;20478;-83
2022/08/06 06:45:34;;;;;;;3.42;1.80;;;;;;;;;;5012315;28;20057;-83
2022/08/06 06:48:04;;;;;;;2.13;1.42;;;;;;;;;;5029500;28;20556;-83
2022/08/06 06:50:33;;;;;;;6.25;1.70;;;;;;;;;;5025766;28;20128;-83
2022/08/06 06:52:59;;;;;;;3.58;1.90;;;;;;;;;;5027141;28;20517;-83
2022/08/06 06:55:44;;;;;;;3.58;1.80;;;;;;;;;;5029251;28;20100;-83
2022/08/06 06:58:31;;;;;;;2.28;1.83;;;;;;;;;;5011953;28;20375;-83
2022/08/06 07:00:57;;;;;;;;;;;;;;;;;;5029077;28;20502;-83
2022/08/06 07:03:24;;;;;;;2.97;1.65;;;;;;;;;;5007952;28;19964;-83
2022/08/06 07:05:50;;;;;;;4.45;1.83;;;;;;;;;;5027072;28;20049;-82
2022/08/06 07:08:18;;;;;;;1.65;1.50;;;;;;;;;;5028091;28;20065;-88
2022/08/06 07:10:45;;;;;;;4.32;2.10;;;;;;;;;;5029535;28;20491;-82
2022/08/06 07:13:12;;;;;;;3.22;1.83;;;;;;;;;;5009431;28;20053;-86
2022/08/06 07:15:38;;;;;;;3.22;2.00;;;;;;;;;;5008139;28;20488;-85
2022/08/06 07:18:05;;;;;;;6.55;2.13;;;;;;;;;;5009342;28;20498;-85
2022/08/06 07:20:32;;;;;;;3.05;2.00;;;;;;;;;;5009964;28;20089;-86
2022/08/06 07:22:59;;;;;;;4.28;2.55;;;;;;;;;;5007241;28;20049;-86
2022/08/06 07:25:25;;;;;;;3.60;1.70;;;;;;;;;;4992446;28;20069;-83
2022/08/06 07:27:51;;;;;;;4.38;1.92;;;;;;;;;;5009939;28;20045;-83
2022/08/06 07:30:19;;;;;;;4.72;1.88;;;;;;;;;;5025354;28;20044;-83
2022/08/06 07:32:45;;;;;;;6.22;2.35;;;;;;;;;;5007249;28;20122;-83
2022/08/06 07:35:12;;;;;;;3.78;1.77;;;;;;;;;;4997119;28;20053;-83
2022/08/06 07:37:40;;;;;;;4.70;2.10;;;;;;;;;;5032889;28;20446;-83
2022/08/06 07:40:09;;;;;;;4.78;2.30;;;;;;;;;;5033730;28;20049;-87
2022/08/06 07:42:36;;;;;;;6.88;2.20;;;;;;;;;;5014955;28;20444;-81
2022/08/06 07:45:04;;;;;;;2.95;2.00;;;;;;;;;;5032402;28;20053;-84
2022/08/06 07:47:33;;;;;;;4.97;2.30;;;;;;;;;;5033137;28;20053;-84
2022/08/06 07:49:59;;;;;;;4.82;1.95;;;;;;;;;;5014715;28;20517;-84
2022/08/06 07:52:26;;;;;;;3.92;2.35;;;;;;;;;;5016057;28;20046;-84
2022/08/06 07:54:54;;;;;;;8.63;2.88;;;;;;;;;;5011020;28;20053;-84
2022/08/06 07:57:20;;;;;;;4.38;2.00;;;;;;;;;;5033208;28;20056;-84
2022/08/06 07:59:47;;;;;;;4.18;2.10;;;;;;;;;;5031344;28;20530;-84
2022/08/06 08:02:13;;;;;;;2.95;1.95;;;;;;;;;;5032819;28;20475;-84
2022/08/06 08:07:24;;;;;;;4.90;2.30;;;;;;;;;;5023809;28;20050;-85
2022/08/06 08:09:51;;;;;;;4.30;2.42;;;;;;;;;;5030607;28;20099;-85
2022/08/06 08:12:19;;;;;;;4.82;2.28;;;;;;;;;;5032566;28;20091;-85
2022/08/06 08:14:46;;;;;;;3.00;1.95;;;;;;;;;;5011387;28;20045;-85
2022/08/06 08:17:13;;;;;;;3.83;1.98;;;;;;;;;;4995802;28;20767;-81
2022/08/06 08:19:40;;;;;;;3.47;2.20;;;;;;;;;;5004757;28;20050;-81
2022/08/06 08:22:09;;;;;;;4.82;2.10;;;;;;;;;;5010774;28;20397;-82
2022/08/06 08:24:35;;;;;;;5.72;2.65;;;;;;;;;;5013101;28;20092;-83
2022/08/06 08:27:03;;;;;;;2.65;2.20;;;;;;;;;;5020143;28;20049;-83
2022/08/06 08:29:29;;;;;;;3.85;2.20;;;;;;;;;;5025438;28;20049;-83
2022/08/06 08:31:56;;;;;;;3.67;2.22;;;;;;;;;;5019503;28;20042;-83
2022/08/06 08:34:22;;;;;;;4.15;2.33;;;;;;;;;;5020155;28;20092;-82
2022/08/06 08:36:48;;;;;;;5.10;2.70;;;;;;;;;;5031959;28;20049;-82
2022/08/06 08:39:15;;;;;;;3.22;2.40;;;;;;;;;;5012973;28;20493;-82
2022/08/06 08:41:45;;;;;;;3.45;2.85;;;;;;;;;;5007979;28;20053;-82
2022/08/06 08:44:11;;;;;;;6.10;2.70;;;;;;;;;;5031176;28;20045;-82
2022/08/06 08:46:38;;;;;;;5.28;2.33;;;;;;;;;;5007550;28;20053;-83
2022/08/06 08:49:05;;;;;;;4.43;2.60;;;;;;;;;;5024773;28;20053;-83
2022/08/06 08:51:34;;;;;;;3.75;2.33;;;;;;;;;;5026397;28;20053;-83
2022/08/06 08:54:00;;;;;;;5.57;2.63;;;;;;;;;;5003500;28;20410;-83
2022/08/06 08:56:26;;;;;;;4.63;2.45;;;;;;;;;;5031744;28;20041;-83
2022/08/06 08:58:53;;;;;;;4.80;2.25;;;;;;;;;;5028515;28;20099;-83
2022/08/06 09:01:20;;;;;;;3.70;2.47;;;;;;;;;;5031088;28;20041;-83
2022/08/06 09:03:46;;;;;;;3.55;2.30;;;;;;;;;;5003965;28;20479;-82
2022/08/06 09:06:12;;;;;;;3.45;2.58;;;;;;;;;;5004391;28;20147;-83
2022/08/06 09:08:38;;;;;;;4.95;2.55;;;;;;;;;;5023469;28;20052;-83
2022/08/06 09:11:05;;;;;;;4.35;2.60;;;;;;;;;;5000137;28;20042;-83
2022/08/06 09:13:31;;;;;;;6.88;3.15;;;;;;;;;;5011418;28;20042;-83
2022/08/06 09:15:58;;;;;;;4.82;2.70;;;;;;;;;;5011031;28;20045;-83
2022/08/06 09:18:25;;;;;;;4.22;2.70;;;;;;;;;;5011384;28;20568;-83
2022/08/06 09:20:51;;;;;;;3.35;2.45;;;;;;;;;;5011434;28;20041;-85
2022/08/06 09:23:17;;;;;;;4.93;2.95;;;;;;;;;;5012199;28;20057;-87
2022/08/06 09:25:45;;;;;;;5.20;3.38;;;;;;;;;;5031594;28;20050;-90
2022/08/06 09:28:26;;;;;;;3.53;2.80;;;;;;;;;;5031238;28;20117;-82
2022/08/06 09:31:18;;;;;;;6.22;3.10;;;;;;;;;;5031520;28;20482;-83
2022/08/06 09:34:02;;;;;;;3.65;2.80;;;;;;;;;;5028524;28;20521;-85
2022/08/06 09:36:28;;;;;;;3.72;3.00;;;;;;;;;;5025939;28;20242;-83
2022/08/06 09:38:57;;;;;;;3.50;3.00;;;;;;;;;;5025000;28;20038;-86
2022/08/06 09:41:24;;;;;;;4.38;2.97;;;;;;;;;;5031445;28;20068;-82
2022/08/06 09:43:51;;;;;;;2.90;2.60;;;;;;;;;;5031015;28;20562;-83
2022/08/06 09:46:18;;;;;;;9.25;3.30;;;;;;;;;;5030216;28;20540;-83
2022/08/06 09:49:03;;;;;;;6.55;2.97;;;;;;;;;;5012610;28;20103;-86
2022/08/06 09:51:30;;;;;;;4.50;2.60;;;;;;;;;;5021345;28;20087;-88
2022/08/06 09:53:59;;;;;;;4.18;3.20;;;;;;;;;;5030265;28;20490;-83
2022/08/06 09:56:27;;;;;;;3.70;3.13;;;;;;;;;;5031024;28;20454;-83
2022/08/06 09:59:03;;;;;;;3.60;3.00;;;;;;;;;;5030662;28;20049;-84
2022/08/06 10:01:31;;;;;;;4.20;3.05;;;;;;;;;;5012918;28;20061;-83
2022/08/06 10:03:58;;;;;;;5.43;3.22;;;;;;;;;;5026805;28;20398;-83
2022/08/06 10:06:25;;;;;;;4.80;3.25;;;;;;;;;;5025982;28;20401;-83
2022/08/06 10:09:05;;;;;;;4.55;3.40;;;;;;;;;;5031040;28;20046;-84
2022/08/06 10:11:35;;;;;;;5.50;3.30;;;;;;;;;;5012493;28;20046;-83
2022/08/06 10:14:01;;;;;;;5.03;3.50;;;;;;;;;;5029057;28;20398;-83
2022/08/06 10:16:29;;;;;;;5.00;3.35;;;;;;;;;;5024847;28;20041;-83
2022/08/06 10:18:55;;;;;;;4.88;3.15;;;;;;;;;;4992889;28;20062;-83
2022/08/06 10:21:22;;;;;;;3.67;2.75;;;;;;;;;;4992852;28;20045;-83
2022/08/06 10:23:58;;;;;;;5.25;3.30;;;;;;;;;;5011111;28;20046;-82
2022/08/06 10:26:32;;;;;;;5.95;3.10;;;;;;;;;;5008637;28;20049;-83
2022/08/06 10:29:03;;;;;;;3.95;3.50;;;;;;;;;;5010741;28;20052;-82
2022/08/06 10:31:29;;;;;;;3.83;3.13;;;;;;;;;;5025461;28;20038;-86
2022/08/06 10:33:58;;;;;;;4.43;3.20;;;;;;;;;;5011347;28;20049;-86
2022/08/06 10:36:27;;;;;;;3.55;3.20;;;;;;;;;;5001674;28;20034;-80
2022/08/06 10:38:54;;;;;;;3.60;3.30;;;;;;;;;;5009732;28;20100;-83
2022/08/06 10:41:21;;;;;;;4.35;3.25;;;;;;;;;;5008902;28;20053;-82
2022/08/06 10:43:47;;;;;;;4.50;3.63;;;;;;;;;;5014299;28;20043;-83
2022/08/06 10:46:15;;;;;;;4.45;3.65;;;;;;;;;;5028428;28;20540;-82
2022/08/06 10:48:42;;;;;;;5.25;3.20;;;;;;;;;;4996355;28;20132;-83
2022/08/06 10:51:08;;;;;;;5.10;3.42;;;;;;;;;;5010039;28;20483;-82
2022/08/06 10:53:36;;;;;;;5.82;3.30;;;;;;;;;;5009987;28;20065;-82
2022/08/06 10:56:03;;;;;;;5.95;3.55;;;;;;;;;;5009572;28;20069;-82
2022/08/06 10:58:30;;;;;;;5.05;3.40;;;;;;;;;;5010182;28;20045;-82
2022/08/06 11:00:57;;;;;;;4.60;3.15;;;;;;;;;;5007156;28;20482;-83
2022/08/06 11:03:28;;;;;;;5.25;3.60;;;;;;;;;;5010263;28;20056;-82
2022/08/06 11:05:58;;;;;;;6.22;3.47;;;;;;;;;;5009882;28;20081;-83
2022/08/06 11:08:50;;;;;;;4.50;3.58;;;;;;;;;;4992242;28;20060;-83
2022/08/06 11:11:34;;;;;;;4.07;3.05;;;;;;;;;;5009697;28;20050;-82
2022/08/06 11:14:00;;;;;;;6.55;3.85;;;;;;;;;;5009300;28;20068;-82
2022/08/06 11:16:29;;;;;;;3.88;3.25;;;;;;;;;;5025711;28;20120;-82
2022/08/06 11:19:06;;;;;;;5.38;3.65;;;;;;;;;;4991955;28;20046;-82
2022/08/06 11:21:43;;;;;;;5.75;3.42;;;;;;;;;;5008957;28;20458;-82
2022/08/06 11:24:09;;;;;;;3.78;3.20;;;;;;;;;;4991420;28;20478;-83
2022/08/06 11:26:39;;;;;;;4.93;3.00;;;;;;;;;;5017468;28;20034;-82
2022/08/06 11:29:09;;;;;;;4.32;2.95;;;;;;;;;;5010256;28;20288;-82
2022/08/06 11:31:37;;;;;;;4.65;2.92;;;;;;;;;;5010095;28;20046;-82
2022/08/06 11:34:09;;;;;;;4.43;3.00;;;;;;;;;;5009578;28;20050;-82
2022/08/06 11:36:48;;;;;;;4.00;3.30;;;;;;;;;;5028739;28;20045;-83
2022/08/06 11:39:15;;;;;;;4.32;3.05;;;;;;;;;;5011535;28;20069;-82
2022/08/06 11:42:11;;;;;;;7.30;3.40;;;;;;;;;;5029316;28;20072;-82
2022/08/06 11:44:37;;;;;;;5.68;3.30;;;;;;;;;;5016777;28;20053;-82
2022/08/06 11:47:06;;;;;;;4.65;3.30;;;;;;;;;;5011128;28;20119;-82
2022/08/06 11:49:36;;;;;;;5.28;3.20;;;;;;;;;;5028743;28;20045;-83
2022/08/06 11:52:02;;;;;;;5.05;3.30;;;;;;;;;;5017459;28;20050;-82
2022/08/06 11:54:32;;;;;;;4.25;3.20;;;;;;;;;;5009599;28;20545;-82
2022/08/06 11:57:02;;;;;;;4.63;3.08;;;;;;;;;;4999799;28;20046;-82
2022/08/06 11:59:35;;;;;;;3.95;3.20;;;;;;;;;;5009673;28;20050;-82
2022/08/06 12:02:03;;;;;;;6.45;3.28;;;;;;;;;;5009276;28;20446;-82
2022/08/06 12:04:32;;;;;;;5.32;3.03;;;;;;;;;;5010389;28;20041;-82
2022/08/06 12:07:13;;;;;;;3.95;3.03;;;;;;;;;;5009045;28;20038;-82
2022/08/06 12:09:39;;;;;;;3.97;3.03;;;;;;;;;;5009638;28;20056;-82
2022/08/06 12:12:24;;;;;;;4.57;2.78;;;;;;;;;;5009470;28;20049;-83
2022/08/06 12:14:55;;;;;;;3.63;3.15;;;;;;;;;;5009243;28;20042;-82
2022/08/06 12:17:22;;;;;;;4.20;3.20;;;;;;;;;;4992128;28;20049;-82
2022/08/06 12:19:49;;;;;;;3.97;3.05;;;;;;;;;;5011331;28;20045;-82
2022/08/06 12:22:17;;;;;;;3.88;2.50;;;;;;;;;;5012991;28;20049;-83
2022/08/06 12:24:44;;;;;;;4.85;2.90;;;;;;;;;;5030954;28;20049;-83
2022/08/06 12:27:11;;;;;;;4.55;3.05;;;;;;;;;;5017916;28;20107;-83
2022/08/06 12:29:37;;;;;;;3.78;2.97;;;;;;;;;;5011726;28;20060;-83
2022/08/06 12:32:21;;;;;;;4.38;2.90;;;;;;;;;;5015742;28;20045;-83
2022/08/06 12:34:48;;;;;;;3.35;2.92;;;;;;;;;;5012883;28;20038;-83
2022/08/06 12:37:14;;;;;;;3.58;2.63;;;;;;;;;;5012381;28;20046;-83
2022/08/06 12:42:25;;;;;;;4.25;3.50;;;;;;;;;;4994463;28;20414;-83
2022/08/06 12:44:51;;;;;;;4.38;3.40;;;;;;;;;;5020521;28;20735;-83
2022/08/06 12:47:17;;;;;;;6.15;3.20;;;;;;;;;;5022360;28;20063;-83
2022/08/06 12:49:46;;;;;;;4.10;3.00;;;;;;;;;;5025383;28;20045;-83
2022/08/06 12:52:12;;;;;;;3.58;3.05;;;;;;;;;;5014313;28;20051;-83
2022/08/06 12:54:38;;;;;;;5.57;3.17;;;;;;;;;;5031432;28;20416;-83
2022/08/06 12:57:05;;;;;;;3.65;3.10;;;;;;;;;;5015745;28;20041;-83
2022/08/06 12:59:31;;;;;;;4.20;3.30;;;;;;;;;;5020759;28;20502;-83
2022/08/06 13:01:58;;;;;;;4.03;3.15;;;;;;;;;;5030870;28;20494;-83
2022/08/06 13:04:24;;;;;;;6.57;3.67;;;;;;;;;;5031901;28;20084;-83
2022/08/06 13:06:51;;;;;;;6.20;3.45;;;;;;;;;;5031775;28;20496;-83
2022/08/06 13:09:19;;;;;;;3.92;3.03;;;;;;;;;;5013124;28;20053;-83
2022/08/06 13:11:46;;;;;;;6.95;3.08;;;;;;;;;;5025481;28;20045;-82
2022/08/06 13:14:14;;;;;;;7.72;3.30;;;;;;;;;;5007897;28;20125;-83
2022/08/06 13:16:41;;;;;;;5.65;3.70;;;;;;;;;;5010779;28;20086;-82
2022/08/06 13:19:15;;;;;;;4.47;3.20;;;;;;;;;;5011480;28;20042;-82
2022/08/06 13:21:43;;;;;;;4.05;3.10;;;;;;;;;;5019946;28;20112;-82
2022/08/06 13:24:10;;;;;;;5.30;3.60;;;;;;;;;;5030890;28;20208;-82
2022/08/06 13:26:50;;;;;;;3.92;2.88;;;;;;;;;;5013683;28;20050;-82
2022/08/06 13:29:18;;;;;;;4.25;3.38;;;;;;;;;;5020979;28;20092;-83
2022/08/06 13:31:45;;;;;;;6.60;3.13;;;;;;;;;;4994138;28;20490;-83
2022/08/06 13:34:12;;;;;;;3.80;3.17;;;;;;;;;;4993529;28;20518;-82
2022/08/06 13:36:40;;;;;;;4.15;3.50;;;;;;;;;;5013662;28;20398;-83
2022/08/06 13:39:19;;;;;;;3.97;3.40;;;;;;;;;;5030847;28;20133;-82
2022/08/06 13:41:46;;;;;;;5.07;3.30;;;;;;;;;;5029061;28;20049;-86
2022/08/06 13:44:31;;;;;;;6.35;3.70;;;;;;;;;;5013914;28;20076;-86
2022/08/06 13:46:57;;;;;;;5.78;3.35;;;;;;;;;;4997968;28;20130;-86
2022/08/06 13:49:23;;;;;;;4.03;3.35;;;;;;;;;;5000564;28;20058;-86
2022/08/06 13:51:49;;;;;;;4.05;3.33;;;;;;;;;;5005770;28;20045;-86
2022/08/06 13:54:15;;;;;;;4.15;3.45;;;;;;;;;;5005687;28;20046;-87
2022/08/06 13:56:41;;;;;;;6.65;3.78;;;;;;;;;;4996513;28;20046;-86
2022/08/06 13:59:07;;;;;;;3.55;3.13;;;;;;;;;;5005231;28;20049;-86
2022/08/06 14:01:33;;;;;;;5.35;3.45;;;;;;;;;;5005796;28;20069;-86
2022/08/06 14:03:59;;;;;;;5.03;3.40;;;;;;;;;;5005673;28;20045;-86
2022/08/06 14:06:26;;;;;;;4.15;3.45;;;;;;;;;;5025047;28;20045;-86
2022/08/06 14:08:52;;;;;;;5.07;3.53;;;;;;;;;;5006191;28;20496;-85
2022/08/06 14:11:18;;;;;;;6.30;3.78;;;;;;;;;;4991327;28;20534;-86
2022/08/06 14:13:44;;;;;;;4.43;3.10;;;;;;;;;;5007395;28;20133;-86
2022/08/06 14:16:10;;;;;;;6.10;3.60;;;;;;;;;;4997233;28;20038;-86
2022/08/06 14:18:36;;;;;;;5.05;3.42;;;;;;;;;;4997927;28;20559;-85
2022/08/06 14:21:02;;;;;;;3.70;3.25;;;;;;;;;;5009006;28;20073;-86
2022/08/06 14:23:28;;;;;;;4.93;3.35;;;;;;;;;;5000276;28;20172;-85
2022/08/06 14:25:54;;;;;;;3.97;3.50;;;;;;;;;;5016406;28;20054;-85
2022/08/06 14:28:20;;;;;;;4.18;3.40;;;;;;;;;;4996793;28;20048;-86
2022/08/06 14:30:46;;;;;;;3.72;3.17;;;;;;;;;;4998193;28;20478;-86
2022/08/06 14:33:12;;;;;;;5.03;3.70;;;;;;;;;;4999224;28;20035;-88
2022/08/06 14:35:39;;;;;;;4.75;3.05;;;;;;;;;;5009264;28;20688;-85
2022/08/06 14:38:05;;;;;;;7.65;3.40;;;;;;;;;;5009782;28;20121;-85
2022/08/06 14:46:04;;;;;;;4.03;3.10;;;;;;;;;;4996846;28;20122;-85
2022/08/06 14:48:30;;;;;;;6.95;4.15;;;;;;;;;;5016498;28;20057;-85
2022/08/06 14:50:56;;;;;;;5.57;4.00;;;;;;;;;;5011626;28;20514;-86
2022/08/06 14:53:22;;;;;;;4.97;3.30;;;;;;;;;;5029912;28;20462;-85
2022/08/06 14:55:48;;;;;;;5.07;3.55;;;;;;;;;;5029986;28;20420;-85
2022/08/06 14:58:14;;;;;;;3.88;3.45;;;;;;;;;;5012225;28;20138;-86
2022/08/06 15:00:40;;;;;;;4.68;3.50;;;;;;;;;;5030306;28;20081;-85
2022/08/06 15:03:06;;;;;;;4.07;3.28;;;;;;;;;;5010252;28;20128;-85